createdAt,value
2019-02-10T00:01:52.030Z,99357.04
2019-02-10T00:04:19.461Z,99364.20
2019-02-10T00:06:46.412Z,99368.39
2019-02-10T00:09:13.396Z,99368.02
2019-02-10T00:11:40.823Z,99360.80
2019-02-10T00:14:08.108Z,99364.12
2019-02-10T00:16:35.049Z,99358.77
2019-02-10T00:19:02.021Z,99356.70
2019-02-10T00:21:29.243Z,99352.48
2019-02-10T00:23:56.267Z,99350.83
2019-02-10T00:26:23.203Z,99346.98
2019-02-10T00:28:50.076Z,99341.95
2019-02-10T00:31:17.435Z,99340.23
2019-02-10T00:33:44.388Z,99345.75
2019-02-10T00:36:11.263Z,99347.05
2019-02-10T00:38:39.202Z,99337.80
2019-02-10T00:41:06.407Z,99353.28
2019-02-10T00:43:33.611Z,99354.11
2019-02-10T00:46:00.599Z,99354.14
2019-02-10T00:48:27.553Z,99354.23
2019-02-10T00:50:54.530Z,99352.58
2019-02-10T00:53:21.724Z,99352.59
2019-02-10T00:55:48.645Z,99349.23
2019-02-10T00:58:15.799Z,99355.55
2019-02-10T01:00:42.776Z,99347.97
2019-02-10T01:03:09.766Z,99355.16
2019-02-10T01:05:36.709Z,99352.16
2019-02-10T01:08:03.660Z,99349.65
2019-02-10T01:10:30.648Z,99345.87
2019-02-10T01:12:57.629Z,99344.99
2019-02-10T01:15:24.497Z,99341.59
2019-02-10T01:17:51.389Z,99334.52
2019-02-10T01:20:18.257Z,99334.06
2019-02-10T01:22:45.448Z,99340.32
2019-02-10T01:25:12.462Z,99336.06
2019-02-10T01:27:39.404Z,99339.02
2019-02-10T01:30:06.356Z,99332.27
2019-02-10T01:32:33.334Z,99326.88
2019-02-10T01:35:00.345Z,99323.93
2019-02-10T01:37:30.304Z,99329.44
2019-02-10T01:39:57.282Z,99322.72
2019-02-10T01:42:24.587Z,99316.45
2019-02-10T01:44:51.817Z,99316.42
2019-02-10T01:47:19.082Z,99319.84
2019-02-10T01:49:45.958Z,99321.91
2019-02-10T01:52:13.269Z,99324.02
2019-02-10T01:54:40.556Z,99324.81
2019-02-10T01:57:09.808Z,99320.21
2019-02-10T01:59:37.107Z,99316.00
2019-02-10T02:02:04.462Z,99309.23
2019-02-10T02:04:31.445Z,99309.27
2019-02-10T02:06:58.379Z,99305.13
2019-02-10T02:09:25.288Z,99298.35
2019-02-10T02:11:52.265Z,99291.63
2019-02-10T02:14:19.134Z,99283.19
2019-02-10T02:16:46.338Z,99282.32
2019-02-10T02:19:13.579Z,99283.98
2019-02-10T02:21:40.822Z,99270.51
2019-02-10T02:24:08.089Z,99262.11
2019-02-10T02:26:35.443Z,99260.43
2019-02-10T02:29:04.013Z,99249.91
2019-02-10T02:31:30.964Z,99249.53
2019-02-10T02:33:57.867Z,99238.54
2019-02-10T02:36:25.789Z,99235.18
2019-02-10T02:38:52.771Z,99228.88
2019-02-10T02:41:19.743Z,99227.58
2019-02-10T02:43:46.748Z,99226.37
2019-02-10T02:46:14.076Z,99216.56
2019-02-10T02:48:41.085Z,99211.53
2019-02-10T02:51:08.386Z,99215.28
2019-02-10T02:53:35.726Z,99216.98
2019-02-10T02:56:03.007Z,99206.08
2019-02-10T02:58:30.157Z,99211.27
2019-02-10T03:00:57.385Z,99195.20
2019-02-10T03:03:25.458Z,99197.27
2019-02-10T03:05:52.462Z,99187.69
2019-02-10T03:08:19.760Z,99182.23
2019-02-10T03:10:46.709Z,99178.84
2019-02-10T03:13:13.633Z,99172.55
2019-02-10T03:15:40.630Z,99167.97
2019-02-10T03:18:07.614Z,99172.66
2019-02-10T03:20:34.602Z,99167.53
2019-02-10T03:23:01.563Z,99166.76
2019-02-10T03:25:28.489Z,99164.61
2019-02-10T03:27:55.418Z,99169.66
2019-02-10T03:30:22.418Z,99165.44
2019-02-10T03:32:49.379Z,99165.80
2019-02-10T03:35:16.324Z,99170.50
2019-02-10T03:37:43.279Z,99159.53
2019-02-10T03:40:10.206Z,99160.34
2019-02-10T03:42:37.148Z,99145.21
2019-02-10T03:45:04.463Z,99138.87
2019-02-10T03:47:31.417Z,99138.45
2019-02-10T03:49:58.394Z,99136.33
2019-02-10T03:52:25.348Z,99136.25
2019-02-10T03:54:52.335Z,99128.26
2019-02-10T03:57:19.315Z,99120.62
2019-02-10T03:59:46.343Z,99126.13
2019-02-10T04:02:13.579Z,99123.94
2019-02-10T04:04:40.936Z,99121.86
2019-02-10T04:07:08.217Z,99111.25
2019-02-10T04:09:35.551Z,99112.81
2019-02-10T04:12:02.510Z,99105.16
2019-02-10T04:14:29.393Z,99108.95
2019-02-10T04:16:56.291Z,99111.16
2019-02-10T04:19:23.531Z,99109.98
2019-02-10T04:21:50.414Z,99104.18
2019-02-10T04:24:17.756Z,99108.74
2019-02-10T04:26:45.143Z,99100.17
2019-02-10T04:29:12.358Z,99099.58
2019-02-10T04:31:39.598Z,99094.72
2019-02-10T04:34:06.528Z,99090.75
2019-02-10T04:36:33.507Z,99085.50
2019-02-10T04:39:01.088Z,99079.63
2019-02-10T04:41:29.688Z,99069.84
2019-02-10T04:43:56.986Z,99072.27
2019-02-10T04:46:24.242Z,99061.63
2019-02-10T04:48:51.615Z,99059.25
2019-02-10T04:51:18.872Z,99052.89
2019-02-10T04:53:45.824Z,99053.80
2019-02-10T04:56:12.858Z,99057.80
2019-02-10T04:58:39.831Z,99054.23
2019-02-10T05:01:06.797Z,99052.22
2019-02-10T05:03:33.756Z,99044.40
2019-02-10T05:06:01.060Z,99040.58
2019-02-10T05:08:28.022Z,99040.95
2019-02-10T05:10:54.921Z,99038.56
2019-02-10T05:13:21.904Z,99030.28
2019-02-10T05:15:49.133Z,99028.84
2019-02-10T05:18:16.133Z,99013.73
2019-02-10T05:20:43.204Z,99007.84
2019-02-10T05:23:10.171Z,99010.46
2019-02-10T05:25:37.154Z,98999.02
2019-02-10T05:28:04.107Z,98991.54
2019-02-10T05:30:31.062Z,98979.56
2019-02-10T05:32:58.034Z,98973.66
2019-02-10T05:35:24.954Z,98976.41
2019-02-10T05:37:51.870Z,98976.86
2019-02-10T05:40:20.553Z,98969.56
2019-02-10T05:42:47.602Z,98964.94
2019-02-10T05:45:14.502Z,98971.19
2019-02-10T05:47:41.375Z,98966.31
2019-02-10T05:50:08.436Z,98966.73
2019-02-10T05:52:37.082Z,98966.70
2019-02-10T05:55:04.934Z,98951.61
2019-02-10T05:57:31.888Z,98950.52
2019-02-10T05:59:58.867Z,98937.53
2019-02-10T06:02:25.786Z,98936.75
2019-02-10T06:04:52.677Z,98928.72
2019-02-10T06:07:19.685Z,98923.91
2019-02-10T06:09:46.604Z,98918.30
2019-02-10T06:12:13.610Z,98916.86
2019-02-10T06:14:40.498Z,98907.27
2019-02-10T06:17:07.405Z,98901.00
2019-02-10T06:19:34.340Z,98897.86
2019-02-10T06:22:01.711Z,98887.61
2019-02-10T06:24:28.627Z,98874.22
2019-02-10T06:26:55.665Z,98862.23
2019-02-10T06:29:22.937Z,98865.58
2019-02-10T06:31:50.485Z,98871.29
2019-02-10T06:34:17.954Z,98865.75
2019-02-10T06:36:44.948Z,98854.72
2019-02-10T06:39:13.511Z,98848.52
2019-02-10T06:41:41.071Z,98841.50
2019-02-10T06:44:08.291Z,98848.73
2019-02-10T06:46:35.289Z,98823.48
2019-02-10T06:49:02.312Z,98805.76
2019-02-10T06:51:29.201Z,98758.20
2019-02-10T06:53:56.087Z,98753.38
2019-02-10T06:56:24.850Z,98809.23
2019-02-10T06:58:52.340Z,98807.32
2019-02-10T07:01:19.401Z,98806.59
2019-02-10T07:03:46.363Z,98823.83
2019-02-10T07:06:13.403Z,98819.52
2019-02-10T07:08:40.954Z,98811.91
2019-02-10T07:11:10.454Z,98804.96
2019-02-10T07:13:37.428Z,98814.08
2019-02-10T07:16:04.619Z,98801.17
2019-02-10T07:18:32.426Z,98789.13
2019-02-10T07:20:59.976Z,98779.16
2019-02-10T07:23:27.032Z,98749.52
2019-02-10T07:25:53.968Z,98745.67
2019-02-10T07:28:20.932Z,98750.17
2019-02-10T07:30:47.901Z,98765.17
2019-02-10T07:33:14.957Z,98766.92
2019-02-10T07:35:41.902Z,98774.79
2019-02-10T07:38:08.881Z,98775.14
2019-02-10T07:40:36.142Z,98777.80
2019-02-10T07:43:03.122Z,98770.98
2019-02-10T07:45:30.087Z,98769.65
2019-02-10T07:47:57.115Z,98765.50
2019-02-10T07:50:25.544Z,98760.63
2019-02-10T07:52:54.026Z,98761.26
2019-02-10T07:58:11.166Z,98732.63
2019-02-10T08:00:38.642Z,98737.14
2019-02-10T08:03:05.872Z,98717.62
2019-02-10T08:05:32.848Z,98723.41
2019-02-10T08:08:00.579Z,98713.16
2019-02-10T08:10:27.891Z,98704.39
2019-02-10T08:12:54.850Z,98699.34
2019-02-10T08:15:21.829Z,98692.39
2019-02-10T08:17:49.739Z,98694.88
2019-02-10T08:20:16.670Z,98692.93
2019-02-10T08:22:43.694Z,98680.11
2019-02-10T08:25:10.787Z,98672.19
2019-02-10T08:27:38.328Z,98674.20
2019-02-10T08:30:05.550Z,98661.05
2019-02-10T08:32:32.798Z,98648.84
2019-02-10T08:35:02.622Z,98644.81
2019-02-10T08:37:29.821Z,98632.85
2019-02-10T08:39:58.464Z,98622.11
2019-02-10T08:42:25.448Z,98625.38
2019-02-10T08:44:52.768Z,98624.87
2019-02-10T08:47:20.197Z,98620.34
2019-02-10T08:49:48.820Z,98612.58
2019-02-10T08:52:15.790Z,98609.78
2019-02-10T08:54:42.755Z,98597.11
2019-02-10T08:57:10.303Z,98597.30
2019-02-10T08:59:37.261Z,98593.48
2019-02-10T09:02:04.217Z,98590.09
2019-02-10T09:04:31.504Z,98583.49
2019-02-10T09:06:58.759Z,98577.91
2019-02-10T09:09:25.633Z,98560.68
2019-02-10T09:11:52.878Z,98552.54
2019-02-10T09:14:20.099Z,98549.97
2019-02-10T09:16:47.470Z,98536.17
2019-02-10T09:19:14.433Z,98535.53
2019-02-10T09:21:41.736Z,98530.53
2019-02-10T09:24:10.645Z,98508.06
2019-02-10T09:26:38.026Z,98506.22
2019-02-10T09:29:05.007Z,98497.33
2019-02-10T09:31:33.234Z,98491.73
2019-02-10T09:34:00.345Z,98498.90
2019-02-10T09:36:27.345Z,98483.16
2019-02-10T09:38:54.586Z,98475.09
2019-02-10T09:41:21.935Z,98481.91
2019-02-10T09:43:49.354Z,98475.07
2019-02-10T09:46:16.264Z,98479.59
2019-02-10T09:48:43.773Z,98465.44
2019-02-10T09:51:11.150Z,98460.00
2019-02-10T09:53:38.331Z,98449.88
2019-02-10T09:56:05.660Z,98448.94
2019-02-10T09:58:32.624Z,98441.64
2019-02-10T10:00:59.851Z,98423.92
2019-02-10T10:03:26.725Z,98437.80
2019-02-10T10:05:53.641Z,98419.50
2019-02-10T10:08:20.902Z,98410.67
2019-02-10T10:10:48.267Z,98413.46
2019-02-10T10:13:15.523Z,98413.34
2019-02-10T10:15:42.477Z,98410.67
2019-02-10T10:18:09.706Z,98404.41
2019-02-10T10:20:36.685Z,98381.27
2019-02-10T10:23:03.694Z,98393.65
2019-02-10T10:25:30.644Z,98384.20
2019-02-10T10:27:57.890Z,98381.45
2019-02-10T10:30:25.940Z,98379.00
2019-02-10T10:32:52.850Z,98369.97
2019-02-10T10:35:20.242Z,98366.88
2019-02-10T10:37:47.555Z,98363.80
2019-02-10T10:40:14.892Z,98360.93
2019-02-10T10:42:41.878Z,98367.06
2019-02-10T10:45:09.177Z,98355.34
2019-02-10T10:47:36.049Z,98344.08
2019-02-10T10:50:03.293Z,98352.23
2019-02-10T10:52:30.868Z,98341.63
2019-02-10T10:54:57.735Z,98345.17
2019-02-10T10:57:25.239Z,98331.42
2019-02-10T10:59:52.287Z,98318.52
2019-02-10T11:02:20.383Z,98303.56
2019-02-10T11:04:47.318Z,98301.35
2019-02-10T11:07:14.186Z,98295.59
2019-02-10T11:09:41.812Z,98293.20
2019-02-10T11:12:08.889Z,98297.70
2019-02-10T11:14:35.828Z,98282.88
2019-02-10T11:17:03.162Z,98265.11
2019-02-10T11:19:30.041Z,98261.47
2019-02-10T11:21:57.051Z,98249.13
2019-02-10T11:24:28.730Z,98244.95
2019-02-10T11:26:52.913Z,98239.45
2019-02-10T11:29:19.906Z,98236.56
2019-02-10T11:31:47.190Z,98232.74
2019-02-10T11:34:14.141Z,98244.38
2019-02-10T11:36:41.512Z,98232.00
2019-02-10T11:39:08.844Z,98237.69
2019-02-10T11:41:36.149Z,98236.23
2019-02-10T11:44:03.437Z,98237.66
2019-02-10T11:46:30.317Z,98220.77
2019-02-10T11:48:57.211Z,98219.13
2019-02-10T11:51:24.408Z,98187.00
2019-02-10T11:53:51.385Z,98184.50
2019-02-10T11:56:18.390Z,98167.64
2019-02-10T11:58:45.438Z,98151.95
2019-02-10T12:01:12.573Z,98137.31
2019-02-10T12:03:39.532Z,98135.56
2019-02-10T12:06:06.499Z,98125.91
2019-02-10T12:08:39.096Z,98120.58
2019-02-10T12:11:05.705Z,98108.50
2019-02-10T12:13:32.663Z,98095.30
2019-02-10T12:15:59.883Z,98086.62
2019-02-10T12:18:26.830Z,98076.66
2019-02-10T12:20:55.476Z,98058.13
2019-02-10T12:23:22.800Z,98046.14
2019-02-10T12:25:49.775Z,98053.34
2019-02-10T12:28:17.076Z,98048.64
2019-02-10T12:30:44.468Z,98021.14
2019-02-10T12:33:12.040Z,98025.35
2019-02-10T12:35:40.801Z,97997.20
2019-02-10T12:38:07.781Z,97997.52
2019-02-10T12:40:34.776Z,97997.07
2019-02-10T12:43:01.743Z,97981.05
2019-02-10T12:45:28.675Z,97966.75
2019-02-10T12:47:55.923Z,97974.73
2019-02-10T12:50:24.418Z,97957.97
2019-02-10T12:52:51.666Z,97970.25
2019-02-10T12:55:19.016Z,97964.45
2019-02-10T12:57:45.978Z,97960.03
2019-02-10T13:00:13.018Z,97945.84
2019-02-10T13:02:53.058Z,97938.25
2019-02-10T13:05:24.612Z,97931.20
2019-02-10T13:07:51.657Z,97921.89
2019-02-10T13:10:18.799Z,97916.00
2019-02-10T13:12:52.690Z,97914.13
2019-02-10T13:15:23.705Z,97906.95
2019-02-10T13:17:56.869Z,97906.63
2019-02-10T13:20:22.161Z,97918.77
2019-02-10T13:22:50.445Z,97900.31
2019-02-10T13:25:20.304Z,97898.44
2019-02-10T13:27:47.639Z,97892.36
2019-02-10T13:30:14.855Z,97879.07
2019-02-10T13:32:41.936Z,97867.48
2019-02-10T13:35:09.282Z,97869.18
2019-02-10T13:37:36.922Z,97860.97
2019-02-10T13:40:06.947Z,97865.53
2019-02-10T13:42:33.952Z,97852.08
2019-02-10T13:45:01.272Z,97833.12
2019-02-10T13:47:28.220Z,97824.20
2019-02-10T13:49:56.840Z,97827.81
2019-02-10T13:52:24.125Z,97815.99
2019-02-10T13:54:51.103Z,97814.44
2019-02-10T13:57:18.146Z,97815.31
2019-02-10T13:59:45.071Z,97807.33
2019-02-10T14:02:12.046Z,97794.03
2019-02-10T14:04:38.997Z,97796.56
2019-02-10T14:07:05.974Z,97786.41
2019-02-10T14:09:32.949Z,97779.39
2019-02-10T14:11:59.900Z,97782.87
2019-02-10T14:14:27.266Z,97779.52
2019-02-10T14:16:54.717Z,97766.63
2019-02-10T14:19:21.726Z,97760.93
2019-02-10T14:21:48.795Z,97759.58
2019-02-10T14:24:16.168Z,97762.48
2019-02-10T14:26:43.150Z,97744.19
2019-02-10T14:29:10.677Z,97748.64
2019-02-10T14:31:38.244Z,97751.59
2019-02-10T14:34:05.578Z,97756.70
2019-02-10T14:36:32.761Z,97747.05
2019-02-10T14:39:00.094Z,97753.53
2019-02-10T14:41:27.712Z,97738.75
2019-02-10T14:43:54.644Z,97732.39
2019-02-10T14:46:21.838Z,97744.82
2019-02-10T14:48:48.991Z,97740.27
2019-02-10T14:51:16.489Z,97744.25
2019-02-10T14:53:43.407Z,97735.23
2019-02-10T14:56:10.665Z,97737.72
2019-02-10T14:58:42.919Z,97729.23
2019-02-10T15:01:07.069Z,97734.30
2019-02-10T15:03:35.008Z,97716.78
2019-02-10T15:06:11.429Z,97711.45
2019-02-10T15:08:38.602Z,97714.40
2019-02-10T15:11:05.989Z,97706.71
2019-02-10T15:13:33.046Z,97707.27
2019-02-10T15:16:01.090Z,97696.74
2019-02-10T15:18:28.101Z,97689.56
2019-02-10T15:20:57.083Z,97686.13
2019-02-10T15:23:23.969Z,97682.06
2019-02-10T15:25:57.039Z,97666.69
2019-02-10T15:28:24.046Z,97660.80
2019-02-10T15:30:51.367Z,97667.84
2019-02-10T15:33:18.699Z,97644.83
2019-02-10T15:35:46.153Z,97650.76
2019-02-10T15:38:13.440Z,97631.63
2019-02-10T15:40:40.791Z,97644.38
2019-02-10T15:43:08.229Z,97635.48
2019-02-10T15:45:35.174Z,97623.39
2019-02-10T15:48:02.381Z,97616.52
2019-02-10T15:50:29.634Z,97626.56
2019-02-10T15:52:57.154Z,97612.73
2019-02-10T15:55:24.071Z,97610.08
2019-02-10T15:57:51.087Z,97618.78
2019-02-10T16:00:18.111Z,97628.94
2019-02-10T16:02:45.470Z,97642.51
2019-02-10T16:05:12.430Z,97622.89
2019-02-10T16:07:39.651Z,97609.58
2019-02-10T16:10:06.811Z,97616.27
2019-02-10T16:12:34.073Z,97613.00
2019-02-10T16:15:01.026Z,97603.68
2019-02-10T16:17:28.480Z,97567.05
2019-02-10T16:19:55.938Z,97562.09
2019-02-10T16:22:22.977Z,97592.00
2019-02-10T16:24:50.165Z,97598.03
2019-02-10T16:27:17.520Z,97593.65
2019-02-10T16:29:44.828Z,97575.15
2019-02-10T16:32:12.175Z,97574.31
2019-02-10T16:34:39.245Z,97572.72
2019-02-10T16:37:07.951Z,97571.78
2019-02-10T16:39:35.180Z,97581.69
2019-02-10T16:42:02.093Z,97582.73
2019-02-10T16:44:29.386Z,97576.91
2019-02-10T16:46:56.341Z,97570.19
2019-02-10T16:49:26.745Z,97582.11
2019-02-10T16:51:54.012Z,97572.53
2019-02-10T16:54:21.135Z,97583.34
2019-02-10T16:56:48.635Z,97557.32
2019-02-10T16:59:15.598Z,97577.04
2019-02-10T17:01:42.554Z,97580.90
2019-02-10T17:04:09.552Z,97583.25
2019-02-10T17:06:36.468Z,97588.16
2019-02-10T17:09:03.523Z,97582.61
2019-02-10T17:11:32.085Z,97592.17
2019-02-10T17:14:00.488Z,97578.69
2019-02-10T17:16:27.456Z,97574.09
2019-02-10T17:18:54.448Z,97580.39
2019-02-10T17:21:21.366Z,97586.06
2019-02-10T17:23:48.334Z,97586.23
2019-02-10T17:26:15.313Z,97592.00
2019-02-10T17:28:42.249Z,97604.66
2019-02-10T17:31:09.501Z,97595.14
2019-02-10T17:33:36.419Z,97591.72
2019-02-10T17:36:03.820Z,97586.47
2019-02-10T17:38:30.873Z,97592.75
2019-02-10T17:40:57.838Z,97592.87
2019-02-10T17:43:28.185Z,97587.15
2019-02-10T17:45:53.753Z,97600.78
2019-02-10T17:48:21.287Z,97593.54
2019-02-10T17:50:49.622Z,97582.98
2019-02-10T17:53:17.102Z,97594.38
2019-02-10T17:55:44.302Z,97596.05
2019-02-10T17:58:11.321Z,97608.39
2019-02-10T18:00:38.626Z,97609.34
2019-02-10T18:03:05.565Z,97605.08
2019-02-10T18:05:32.897Z,97604.77
2019-02-10T18:07:59.866Z,97606.17
2019-02-10T18:10:27.079Z,97604.07
2019-02-10T18:12:54.037Z,97611.81
2019-02-10T18:15:20.999Z,97608.78
2019-02-10T18:17:48.085Z,97608.08
2019-02-10T18:20:15.375Z,97605.02
2019-02-10T18:22:42.376Z,97607.35
2019-02-10T18:25:09.339Z,97594.48
2019-02-10T18:27:36.927Z,97608.55
2019-02-10T18:30:04.014Z,97595.45
2019-02-10T18:32:31.449Z,97605.03
2019-02-10T18:34:58.518Z,97592.56
2019-02-10T18:37:25.518Z,97586.80
2019-02-10T18:39:52.594Z,97589.63
2019-02-10T18:42:22.769Z,97583.50
2019-02-10T18:44:50.061Z,97577.83
2019-02-10T18:47:17.044Z,97575.75
2019-02-10T18:49:44.509Z,97579.03
2019-02-10T18:52:11.453Z,97580.81
2019-02-10T18:54:38.442Z,97575.19
2019-02-10T18:57:05.411Z,97569.23
2019-02-10T18:59:32.745Z,97568.56
2019-02-10T19:01:59.951Z,97572.76
2019-02-10T19:04:27.059Z,97570.45
2019-02-10T19:06:54.009Z,97581.77
2019-02-10T19:09:21.445Z,97593.76
2019-02-10T19:11:50.113Z,97594.71
2019-02-10T19:14:17.444Z,97588.83
2019-02-10T19:16:44.549Z,97600.86
2019-02-10T19:19:11.910Z,97604.84
2019-02-10T19:21:38.880Z,97604.09
2019-02-10T19:24:06.098Z,97609.02
2019-02-10T19:26:33.398Z,97602.67
2019-02-10T19:29:00.709Z,97608.36
2019-02-10T19:31:27.676Z,97618.47
2019-02-10T19:33:54.659Z,97607.75
2019-02-10T19:36:21.654Z,97608.41
2019-02-10T19:38:48.914Z,97611.33
2019-02-10T19:41:16.106Z,97603.28
2019-02-10T19:43:44.450Z,97608.75
2019-02-10T19:46:11.696Z,97603.86
2019-02-10T19:48:39.033Z,97613.63
2019-02-10T19:51:06.438Z,97611.78
2019-02-10T19:53:33.479Z,97614.74
2019-02-10T19:56:00.799Z,97631.19
2019-02-10T19:58:27.850Z,97611.61
2019-02-10T20:00:55.980Z,97609.63
2019-02-10T20:03:22.926Z,97612.45
2019-02-10T20:05:50.183Z,97619.94
2019-02-10T20:08:17.412Z,97624.04
2019-02-10T20:10:44.732Z,97636.88
2019-02-10T20:13:11.997Z,97657.59
2019-02-10T20:15:38.969Z,97662.59
2019-02-10T20:18:06.055Z,97651.82
2019-02-10T20:20:33.236Z,97653.30
2019-02-10T20:23:00.721Z,97649.48
2019-02-10T20:25:31.067Z,97652.58
2019-02-10T20:27:58.263Z,97662.50
2019-02-10T20:30:25.483Z,97567.02
2019-02-10T20:32:52.563Z,97656.62
2019-02-10T20:35:19.823Z,97661.73
2019-02-10T20:37:46.830Z,97668.70
2019-02-10T20:40:15.427Z,97687.70
2019-02-10T20:42:43.657Z,97669.80
2019-02-10T20:45:11.030Z,97674.64
2019-02-10T20:47:38.051Z,97674.24
2019-02-10T20:50:05.045Z,97672.32
2019-02-10T20:52:32.120Z,97662.59
2019-02-10T20:54:59.143Z,97655.81
2019-02-10T20:57:26.162Z,97654.16
2019-02-10T20:59:53.415Z,97651.64
2019-02-10T21:02:22.089Z,97647.18
2019-02-10T21:04:49.743Z,97647.18
2019-02-10T21:07:17.306Z,97653.14
2019-02-10T21:09:45.472Z,97654.80
2019-02-10T21:12:20.164Z,97658.56
2019-02-10T21:14:41.665Z,97657.64
2019-02-10T21:17:09.058Z,97672.11
2019-02-10T21:19:36.073Z,97691.20
2019-02-10T21:22:03.365Z,97682.38
2019-02-10T21:24:33.415Z,97695.63
2019-02-10T21:27:00.681Z,97700.70
2019-02-10T21:29:27.740Z,97712.98
2019-02-10T21:31:54.917Z,97721.86
2019-02-10T21:34:22.065Z,97739.34
2019-02-10T21:36:49.072Z,97752.02
2019-02-10T21:39:19.052Z,97745.19
2019-02-10T21:41:48.466Z,97758.13
2019-02-10T21:44:15.518Z,97750.28
2019-02-10T21:46:42.459Z,97750.65
2019-02-10T21:49:09.439Z,97746.44
2019-02-10T21:51:36.976Z,97761.13
2019-02-10T21:54:03.990Z,97757.86
2019-02-10T21:56:30.926Z,97750.00
2019-02-10T21:58:58.211Z,97747.61
2019-02-10T22:01:25.578Z,97745.98
2019-02-10T22:03:52.552Z,97753.02
2019-02-10T22:06:19.851Z,97756.62
2019-02-10T22:08:47.338Z,97759.63
2019-02-10T22:11:14.802Z,97791.55
2019-02-10T22:13:42.114Z,97796.04
2019-02-10T22:16:09.656Z,97799.56
2019-02-10T22:18:38.990Z,97794.89
2019-02-10T22:23:40.952Z,97785.09
2019-02-10T22:26:07.936Z,97777.97
2019-02-10T22:28:35.178Z,97766.91
2019-02-10T22:31:02.166Z,97775.28
2019-02-10T22:33:29.111Z,97765.78
2019-02-10T22:35:56.002Z,97774.55
2019-02-10T22:38:23.006Z,97763.62
2019-02-10T22:40:50.013Z,97728.30
2019-02-10T22:43:17.364Z,97756.69
2019-02-10T22:45:44.596Z,97745.00
2019-02-10T22:48:11.640Z,97762.23
2019-02-10T22:50:38.621Z,97754.83
2019-02-10T22:53:05.709Z,97777.55
2019-02-10T22:55:32.651Z,97770.78
2019-02-10T22:57:59.944Z,97764.97
2019-02-10T23:00:27.402Z,97762.19
2019-02-10T23:02:56.034Z,97754.10
2019-02-10T23:05:23.022Z,97749.95
2019-02-10T23:07:49.951Z,97754.69
2019-02-10T23:10:17.364Z,97770.17
2019-02-10T23:12:44.350Z,97761.02
2019-02-10T23:15:11.766Z,97762.34
2019-02-10T23:17:39.607Z,97769.70
2019-02-10T23:20:06.602Z,97772.71
2019-02-10T23:22:33.572Z,97778.44
2019-02-10T23:25:00.969Z,97785.42
2019-02-10T23:27:28.168Z,97777.17
2019-02-10T23:29:55.177Z,97767.85
2019-02-10T23:32:22.347Z,97769.95
2019-02-10T23:34:49.553Z,97760.17
2019-02-10T23:37:16.623Z,97763.09
2019-02-10T23:39:43.636Z,97773.55
2019-02-10T23:42:10.556Z,97769.77
2019-02-10T23:44:37.541Z,97777.91
2019-02-10T23:47:04.921Z,97774.12
2019-02-10T23:49:31.900Z,97780.94
2019-02-10T23:51:59.202Z,97766.81
2019-02-10T23:54:26.469Z,97766.70
2019-02-10T23:56:53.440Z,97787.30
2019-02-10T23:59:20.412Z,97769.70
